createdAt,value
2022-12-16T00:04:42.505Z,35.10
2022-12-16T00:15:12.123Z,28.60
2022-12-16T00:25:39.502Z,30.90
2022-12-16T00:36:08.376Z,28.70
2022-12-16T00:46:35.887Z,28.70
2022-12-16T00:57:03.907Z,35.70
2022-12-16T01:07:31.864Z,32.50
2022-12-16T01:17:59.763Z,35.00
2022-12-16T01:28:27.760Z,30.80
2022-12-16T01:38:55.900Z,33.20
2022-12-16T01:49:27.540Z,40.50
2022-12-16T01:59:57.010Z,41.30
2022-12-16T02:10:36.908Z,42.60
2022-12-16T02:21:29.069Z,38.90
2022-12-16T02:32:05.158Z,46.30
2022-12-16T02:42:37.233Z,41.60
2022-12-16T02:53:05.623Z,42.80
2022-12-16T03:03:41.874Z,43.50
2022-12-16T03:14:11.970Z,33.80
2022-12-16T03:24:40.327Z,36.30
2022-12-16T03:35:17.327Z,38.90
2022-12-16T03:45:46.949Z,42.30
2022-12-16T03:56:14.863Z,43.60
2022-12-16T04:06:42.309Z,38.20
2022-12-16T04:17:32.200Z,34.40
2022-12-16T04:27:59.845Z,35.40
2022-12-16T04:38:44.794Z,34.50
2022-12-16T04:49:29.592Z,34.50
2022-12-16T05:00:14.480Z,37.80
2022-12-16T05:11:01.653Z,34.30
2022-12-16T05:21:46.245Z,36.20
2022-12-16T05:32:30.813Z,39.10
2022-12-16T05:43:16.996Z,40.20
2022-12-16T05:54:01.984Z,35.00
2022-12-16T06:04:58.335Z,33.40
2022-12-16T06:15:43.108Z,27.40
2022-12-16T06:26:28.254Z,28.60
2022-12-16T06:37:13.399Z,24.10
2022-12-16T06:48:01.150Z,38.70
2022-12-16T06:58:45.751Z,22.50
2022-12-16T07:09:30.805Z,24.10
2022-12-16T07:20:15.709Z,21.80
2022-12-16T07:31:02.737Z,24.50
2022-12-16T07:41:47.777Z,23.00
2022-12-16T07:52:41.441Z,26.20
2022-12-16T08:03:26.453Z,25.80
2022-12-16T08:14:11.500Z,25.50
2022-12-16T08:24:56.387Z,23.40
2022-12-16T08:35:41.575Z,24.60
2022-12-16T08:46:26.705Z,27.40
2022-12-16T08:57:11.684Z,53.40
2022-12-16T09:07:56.566Z,39.80
2022-12-16T09:18:41.580Z,36.70
2022-12-16T09:29:26.282Z,28.20
2022-12-16T09:40:10.995Z,43.70
2022-12-16T09:50:58.665Z,35.80
2022-12-16T10:01:45.106Z,32.30
2022-12-16T10:12:37.251Z,36.00
2022-12-16T10:23:28.924Z,42.10
2022-12-16T10:34:14.208Z,41.60
2022-12-16T10:45:11.302Z,36.90
2022-12-16T10:56:09.475Z,46.20
2022-12-16T11:07:00.276Z,41.60
2022-12-16T11:17:46.588Z,36.00
2022-12-16T11:28:34.466Z,41.00
2022-12-16T11:39:20.564Z,41.90
2022-12-16T11:50:05.627Z,39.40
2022-12-16T12:00:52.854Z,42.40
2022-12-16T12:11:43.031Z,45.00
2022-12-16T12:22:37.554Z,45.80
2022-12-16T12:33:37.687Z,34.30
2022-12-16T12:44:42.438Z,37.60
2022-12-16T12:55:38.681Z,37.00
2022-12-16T13:06:24.509Z,37.80
2022-12-16T13:17:26.174Z,34.40
2022-12-16T13:28:16.242Z,40.70
2022-12-16T13:39:07.382Z,38.90
2022-12-16T13:50:09.370Z,34.50
2022-12-16T14:01:00.513Z,44.90
2022-12-16T14:12:04.101Z,45.80
2022-12-16T14:23:10.802Z,47.30
2022-12-16T14:33:55.646Z,46.50
2022-12-16T14:44:43.163Z,42.30
2022-12-16T14:55:37.439Z,39.00
2022-12-16T15:06:25.437Z,48.80
2022-12-16T15:17:12.820Z,48.50
2022-12-16T15:27:58.601Z,47.00
2022-12-16T15:38:45.657Z,53.10
2022-12-16T15:49:39.736Z,60.20
2022-12-16T16:00:40.678Z,61.70
2022-12-16T16:11:26.531Z,65.90
2022-12-16T16:22:11.726Z,59.00
2022-12-16T16:32:56.503Z,67.20
2022-12-16T16:43:41.598Z,61.30
2022-12-16T16:54:26.704Z,57.70
2022-12-16T17:05:11.555Z,56.30
2022-12-16T17:15:57.062Z,57.60
2022-12-16T17:26:42.488Z,60.10
2022-12-16T17:37:27.144Z,54.20
2022-12-16T17:48:12.067Z,57.00
2022-12-16T17:58:57.717Z,60.20
2022-12-16T18:09:42.845Z,53.50
2022-12-16T18:20:29.043Z,39.90
2022-12-16T18:31:14.009Z,57.50
2022-12-16T18:42:04.321Z,52.90
2022-12-16T18:52:54.379Z,44.70
2022-12-16T19:03:47.868Z,54.60
2022-12-16T19:14:33.177Z,47.80
2022-12-16T19:25:17.823Z,51.10
2022-12-16T19:36:02.651Z,51.30
2022-12-16T19:46:48.174Z,53.80
2022-12-16T19:57:32.780Z,58.50
2022-12-16T20:08:17.596Z,58.90
2022-12-16T20:19:02.667Z,63.30
2022-12-16T20:29:47.539Z,59.70
2022-12-16T20:40:33.019Z,61.90
2022-12-16T21:02:33.235Z,59.60
2022-12-16T21:13:25.783Z,67.30
2022-12-16T21:24:10.805Z,65.60
2022-12-16T21:34:56.383Z,61.30
2022-12-16T21:45:41.675Z,73.90
2022-12-16T21:56:28.698Z,61.50
2022-12-16T22:07:13.790Z,69.60
2022-12-16T22:17:58.978Z,69.30
2022-12-16T22:28:44.063Z,71.70
2022-12-16T22:39:29.192Z,61.70
2022-12-16T22:50:14.003Z,65.80
2022-12-16T23:12:01.325Z,56.40
2022-12-16T23:22:45.945Z,62.00
2022-12-16T23:33:31.153Z,55.40
2022-12-16T23:44:16.053Z,54.30
2022-12-16T23:55:01.268Z,52.80
